»·PEaware :: N5954W KTVL-KMFR

N5954W :: KTVL-KMFR

FLIGHT INFORMATION

Flight Status: Arrived
Operator: Privately registered:
United States
More flights under this callsign
Pilot: Joshua M. (19482)
Aircraft: Unknown
(1945)
More flights by this aircraft type
Origin: KTVL Lake Tahoe
United States
Destination: KMFR Rogue Valley Intl-Medford
United States
More flights between these airports :: More routes between these airports
Route: +SHOLE2 FMG J92 LMT OED
File this flight plan on PilotEdge
Remarks: Outdated FMC Default XPlane
Altitude:
(Current/Filed)
28,000ft
Speed:
(Current/Filed)
450kts
Departed: 13-Aug-18 03:12 PM
Arrived: 13-Aug-18 04:04 PM
Distance/Time
Traveled:
246nm/0:52
Distance/Time
To Go:
Arrived

Flight Plot

Page will automatically refresh every two minutes.

Flight plan parsing failed; only flown route is shown


Map Options




Map Legend


Flown Route
Filed Route
Departure Airport
Arrival Airport
Navaid (VOR, NDB)
Fix

Horizontal Profiles

Position Reports

Time Latitude Longitude Heading Altitude Ground
Speed
13-Aug-18 15:00 38.889516 -119.998259 101 6268ft 0kts
13-Aug-18 15:01 38.889516 -119.998259 101 6268ft 0kts
13-Aug-18 15:02 38.889513 -119.998244 101 6268ft 1kts
13-Aug-18 15:03 38.889511 -119.998229 101 6268ft 0kts
13-Aug-18 15:04 38.889511 -119.998229 101 6268ft 0kts
13-Aug-18 15:05 38.889511 -119.998229 101 6268ft 0kts
13-Aug-18 15:06 38.889511 -119.998229 101 6268ft 0kts
13-Aug-18 15:07 38.889511 -119.998229 101 6268ft 0kts
13-Aug-18 15:08 38.889510 -119.998224 102 6268ft 0kts
13-Aug-18 15:09 38.888771 -119.997886 192 6268ft 7kts
13-Aug-18 15:10 38.885977 -119.998646 193 6268ft 20kts
13-Aug-18 15:11 38.883103 -119.999441 189 6268ft 0kts
13-Aug-18 15:12 38.882618 -119.999059 115 6268ft 9kts
13-Aug-18 15:13 38.884901 -119.997906 11 6268ft 84kts
13-Aug-18 15:14 38.915502 -119.989332 9 8550ft 200kts
13-Aug-18 15:15 38.961674 -119.979530 6 10995ft 297kts
13-Aug-18 15:16 39.025580 -119.969685 5 14867ft 334kts
13-Aug-18 15:17 39.090197 -119.952221 30 18244ft 361kts
13-Aug-18 15:18 39.150509 -119.909789 25 21172ft 378kts
13-Aug-18 15:19 39.219210 -119.864245 25 23919ft 396kts
13-Aug-18 15:20 39.290018 -119.817195 25 26333ft 412kts
13-Aug-18 15:21 39.387941 -119.751974 25 27941ft 462kts
13-Aug-18 15:22 39.504788 -119.681290 6 27930ft 500kts
13-Aug-18 15:23 39.631710 -119.731855 326 27925ft 513kts
13-Aug-18 15:24 39.741187 -119.814999 326 27924ft 513kts
13-Aug-18 15:25 39.856481 -119.902769 326 27924ft 513kts
13-Aug-18 15:26 39.975766 -119.993943 326 27925ft 512kts
13-Aug-18 15:27 40.095738 -120.086032 326 27924ft 523kts
13-Aug-18 15:28 40.218129 -120.180351 326 27917ft 524kts
13-Aug-18 15:29 40.336454 -120.271858 325 30942ft 480kts
13-Aug-18 15:30 40.447269 -120.358047 325 33877ft 480kts
13-Aug-18 15:31 40.562480 -120.447908 325 33897ft 506kts
13-Aug-18 15:32 40.679833 -120.539828 325 33897ft 506kts
13-Aug-18 15:33 40.798049 -120.632815 325 33897ft 506kts
13-Aug-18 15:34 40.914405 -120.724711 325 33903ft 505kts
13-Aug-18 15:35 41.033528 -120.819199 325 33903ft 505kts
13-Aug-18 15:36 41.140277 -120.904213 325 33898ft 505kts
13-Aug-18 15:37 41.244680 -120.987675 325 33898ft 505kts
13-Aug-18 15:38 41.359254 -121.079627 325 33898ft 505kts
13-Aug-18 15:39 41.463197 -121.163384 325 33898ft 505kts
13-Aug-18 15:40 41.568046 -121.248187 325 33898ft 505kts
13-Aug-18 15:41 41.674315 -121.334481 325 33904ft 507kts
13-Aug-18 15:42 41.783646 -121.423616 325 32012ft 507kts
13-Aug-18 15:43 41.891371 -121.511792 325 30170ft 512kts
13-Aug-18 15:44 41.997608 -121.599093 325 28363ft 517kts
13-Aug-18 15:45 42.101449 -121.684754 325 26614ft 523kts
13-Aug-18 15:46 42.173037 -121.799583 289 25721ft 520kts
13-Aug-18 15:47 42.211401 -121.934907 287 24450ft 408kts
13-Aug-18 15:48 42.249997 -122.073366 288 22655ft 437kts
13-Aug-18 15:49 42.284056 -122.196121 288 20994ft 428kts
13-Aug-18 15:50 42.316798 -122.314726 288 19360ft 420kts
13-Aug-18 15:51 42.345912 -122.428499 275 17765ft 409kts
13-Aug-18 15:52 42.358401 -122.548048 277 16168ft 349kts
13-Aug-18 15:53 42.379322 -122.629367 310 13493ft 259kts
13-Aug-18 15:54 42.414526 -122.677929 312 10466ft 215kts
13-Aug-18 15:55 42.445311 -122.719288 311 7414ft 192kts
13-Aug-18 15:56 42.475890 -122.760384 311 4695ft 184kts
13-Aug-18 15:57 42.507409 -122.802727 311 4185ft 177kts
13-Aug-18 15:58 42.531967 -122.845031 286 4269ft 176kts
13-Aug-18 15:59 42.527547 -122.897391 237 3311ft 162kts
13-Aug-18 16:00 42.499045 -122.926087 198 3337ft 147kts
13-Aug-18 16:01 42.464689 -122.920918 161 2951ft 155kts
13-Aug-18 16:02 42.432072 -122.901130 162 2567ft 143kts
13-Aug-18 16:03 42.402062 -122.887165 162 1855ft 142kts
13-Aug-18 16:04 42.371982 -122.871706 165 1337ft 83kts
13-Aug-18 16:05 42.368894 -122.871585 322 1337ft 13kts
13-Aug-18 16:06 42.371483 -122.876265 227 1337ft 1kts
13-Aug-18 16:07 42.371368 -122.876605 289 1337ft 0kts

Navigation Log

Ident Type
Flight plan parsing failed, navigation log unavailable